Leviticus — WDC2712 — position and weather

sailwx.info

Track history (hours):
 
Tides and Currents Weather Stations Pressure Air Temp Water Temp Dewpoint Dewpoint Depression Visibility Wind Speed Wind Dir Waves Ship Positions

Leviticus

Owner: Kirby Inland Marine, LP, Houston, TX. More information available from US FCC via Universal Licensing System and Coast Guard Vessel Documentation Center.

Last reported at 2016-May-24 06:06 UTC. Time now 2016-May-27 00:23 UTC.
Position N 32°44' W 091°05'.

Length 12 m.

Type: Other ship. MMSI: 366996690.

Date/timePositionNaut miles runAvg speedWind from/ knotsBaromVisibWave heightAir tempDewpointWater temp
2016-May-24 06:06N 32°44' W 091°05'9 3.4
2016-May-24 03:29N 32°36' W 091°08'9 4.3
2016-May-24 01:27N 32°27' W 091°05'4 4.5
2016-May-24 00:33N 32°26' W 091°01'4 4.0
2016-May-23 23:33N 32°22' W 091°00'4 4.3
2016-May-23 22:33N 32°21' W 090°55'2 2.5
2016-May-23 21:33N 32°18' W 090°55'0 0.0
2016-May-23 20:33N 32°18' W 090°55'0 0.0
2016-May-23 19:33N 32°18' W 090°55'0 0.0
2016-May-23 18:33N 32°18' W 090°55'0 0.0
2016-May-23 17:33N 32°18' W 090°55'3 3.0
2016-May-23 16:33N 32°16' W 090°58'4 4.2
2016-May-23 15:33N 32°12' W 090°59'4 3.6
2016-May-23 14:33N 32°08' W 091°00'5 4.6
2016-May-23 13:25N 32°08' W 091°06'5 4.7
2016-May-23 12:26N 32°04' W 091°04'4 4.8
2016-May-23 11:33N 31°60' W 091°05'0 0.2
2016-May-23 10:33N 31°59' W 091°05'4 3.6
2016-May-23 09:21N 31°59' W 091°10'12 4.0
2016-May-23 06:19N 31°50' W 091°20'  
2016-May-20 21:31N 32°04' W 091°04'4 3.7
2016-May-20 20:33N 32°07' W 091°02'9 8.9
2016-May-20 19:33N 32°16' W 090°58'5 5.3
2016-May-20 18:33N 32°21' W 090°57'7 6.9
2016-May-20 17:33N 32°26' W 091°03'8 8.2
2016-May-20 16:33N 32°34' W 091°06'  
Track history (hours):
 
Tides and Currents Weather Stations Pressure Air Temp Water Temp Dewpoint Dewpoint Depression Visibility Wind Speed Wind Dir Waves Ship Positions

Leviticus

Owner: Kirby Inland Marine, LP, Houston, TX. More information available from US FCC via Universal Licensing System and Coast Guard Vessel Documentation Center.

Last reported at 2016-May-24 06:06 UTC. Time now 2016-May-27 00:23 UTC.
Position N 32°44' W 091°05'.

Length 12 m.

Type: Other ship. MMSI: 366996690.

Date/timePositionNaut miles runAvg speedWind from/ knotsBaromVisibWave heightAir tempDewpointWater temp
2016-May-24 06:06N 32°44' W 091°05'9 3.4
2016-May-24 03:29N 32°36' W 091°08'9 4.3
2016-May-24 01:27N 32°27' W 091°05'4 4.5
2016-May-24 00:33N 32°26' W 091°01'4 4.0
2016-May-23 23:33N 32°22' W 091°00'4 4.3
2016-May-23 22:33N 32°21' W 090°55'2 2.5
2016-May-23 21:33N 32°18' W 090°55'0 0.0
2016-May-23 20:33N 32°18' W 090°55'0 0.0
2016-May-23 19:33N 32°18' W 090°55'0 0.0
2016-May-23 18:33N 32°18' W 090°55'0 0.0
2016-May-23 17:33N 32°18' W 090°55'3 3.0
2016-May-23 16:33N 32°16' W 090°58'4 4.2
2016-May-23 15:33N 32°12' W 090°59'4 3.6
2016-May-23 14:33N 32°08' W 091°00'5 4.6
2016-May-23 13:25N 32°08' W 091°06'5 4.7
2016-May-23 12:26N 32°04' W 091°04'4 4.8
2016-May-23 11:33N 31°60' W 091°05'0 0.2
2016-May-23 10:33N 31°59' W 091°05'4 3.6
2016-May-23 09:21N 31°59' W 091°10'12 4.0
2016-May-23 06:19N 31°50' W 091°20'  
2016-May-20 21:31N 32°04' W 091°04'4 3.7
2016-May-20 20:33N 32°07' W 091°02'9 8.9
2016-May-20 19:33N 32°16' W 090°58'5 5.3
2016-May-20 18:33N 32°21' W 090°57'7 6.9
2016-May-20 17:33N 32°26' W 091°03'8 8.2
2016-May-20 16:33N 32°34' W 091°06'  

Dump ship's entire track history